createdAt,value
2022-11-16T00:01:53.896Z,19.80
2022-11-16T00:04:25.898Z,17.75
2022-11-16T00:06:57.960Z,20.83
2022-11-16T00:09:32.084Z,22.77
2022-11-16T00:12:06.397Z,19.10
2022-11-16T00:14:38.443Z,18.85
2022-11-16T00:17:10.450Z,21.00
2022-11-16T00:19:42.506Z,19.65
2022-11-16T00:22:14.756Z,19.98
2022-11-16T00:24:47.243Z,20.42
2022-11-16T00:27:19.275Z,20.98
2022-11-16T00:29:51.287Z,24.00
2022-11-16T00:32:23.687Z,20.55
2022-11-16T00:34:55.978Z,22.45
2022-11-16T00:37:28.041Z,23.77
2022-11-16T00:40:00.061Z,25.17
2022-11-16T00:42:32.833Z,28.25
2022-11-16T00:45:05.078Z,24.05
2022-11-16T00:47:37.733Z,23.17
2022-11-16T00:50:10.213Z,22.07
2022-11-16T00:52:42.200Z,22.13
2022-11-16T00:55:14.733Z,21.10
2022-11-16T00:57:46.837Z,23.27
2022-11-16T01:00:20.943Z,23.13
2022-11-16T01:02:54.592Z,26.13
2022-11-16T01:07:59.153Z,22.85
2022-11-16T01:10:31.886Z,24.27
2022-11-16T01:13:03.934Z,23.35
2022-11-16T01:15:35.931Z,21.75
2022-11-16T01:18:08.046Z,22.27
2022-11-16T01:20:41.113Z,20.55
2022-11-16T01:23:13.277Z,20.92
2022-11-16T01:25:45.287Z,19.40
2022-11-16T01:28:17.401Z,20.13
2022-11-16T01:30:55.065Z,24.85
2022-11-16T01:33:27.744Z,20.50
2022-11-16T01:35:59.841Z,19.60
2022-11-16T01:38:32.854Z,23.98
2022-11-16T01:41:05.219Z,27.08
2022-11-16T01:43:51.062Z,21.33
2022-11-16T01:46:24.739Z,23.17
2022-11-16T01:49:03.744Z,24.60
2022-11-16T01:51:36.764Z,22.20
2022-11-16T01:54:12.503Z,23.05
2022-11-16T01:56:54.530Z,22.15
2022-11-16T01:59:49.010Z,25.90
2022-11-16T02:02:25.087Z,22.48
2022-11-16T02:04:58.703Z,24.00
2022-11-16T02:08:20.439Z,22.30
2022-11-16T02:11:13.766Z,35.03
2022-11-16T02:13:59.444Z,23.90
2022-11-16T02:16:52.788Z,18.35
2022-11-16T02:19:49.933Z,21.02
2022-11-16T02:22:39.618Z,20.10
2022-11-16T02:25:27.339Z,19.83
2022-11-16T02:28:20.671Z,22.52
2022-11-16T02:30:56.127Z,24.97
2022-11-16T02:33:38.249Z,22.48
2022-11-16T02:36:15.893Z,23.75
2022-11-16T02:39:05.342Z,22.05
2022-11-16T02:41:42.916Z,26.30
2022-11-16T02:44:34.502Z,24.85
2022-11-16T02:47:11.151Z,24.10
2022-11-16T02:49:47.587Z,22.98
2022-11-16T02:52:21.512Z,25.67
2022-11-16T02:54:54.312Z,26.52
2022-11-16T02:57:44.611Z,31.90
2022-11-16T03:00:28.595Z,23.45
2022-11-16T03:03:22.139Z,25.23
2022-11-16T03:05:59.265Z,25.83
2022-11-16T03:08:38.068Z,27.65
2022-11-16T03:11:31.239Z,27.30
2022-11-16T03:16:44.557Z,30.63
2022-11-16T03:19:34.200Z,33.42
2022-11-16T03:22:06.379Z,30.38
2022-11-16T03:24:41.676Z,33.20
2022-11-16T03:27:26.379Z,30.10
2022-11-16T03:30:09.656Z,33.17
2022-11-16T03:32:56.080Z,32.17
2022-11-16T03:35:39.628Z,31.60
2022-11-16T03:38:13.577Z,32.85
2022-11-16T03:40:51.070Z,32.80
2022-11-16T03:43:24.329Z,32.20
2022-11-16T03:45:59.379Z,31.27
2022-11-16T03:48:39.718Z,33.47
2022-11-16T03:51:18.342Z,32.92
2022-11-16T03:53:50.499Z,31.98
2022-11-16T03:56:23.185Z,32.20
2022-11-16T03:58:55.245Z,35.95
2022-11-16T04:01:27.408Z,35.38
2022-11-16T04:03:59.850Z,31.13
2022-11-16T04:07:01.417Z,31.55
2022-11-16T04:09:52.980Z,35.58
2022-11-16T04:12:43.679Z,36.63
2022-11-16T04:15:34.424Z,38.08
2022-11-16T04:18:27.089Z,34.88
2022-11-16T04:21:18.798Z,39.92
2022-11-16T04:24:09.926Z,39.97
2022-11-16T04:27:04.101Z,35.35
2022-11-16T04:29:37.454Z,40.42
2022-11-16T04:32:29.403Z,42.60
2022-11-16T04:35:21.422Z,39.95
2022-11-16T04:37:57.083Z,53.97
2022-11-16T04:40:34.254Z,45.00
2022-11-16T04:43:06.500Z,49.53
2022-11-16T04:46:01.042Z,42.95
2022-11-16T04:48:40.555Z,47.92
2022-11-16T04:51:13.625Z,56.33
2022-11-16T04:53:45.696Z,57.97
2022-11-16T04:56:24.091Z,54.35
2022-11-16T04:58:56.551Z,46.75
2022-11-16T05:01:47.208Z,54.10
2022-11-16T05:04:19.370Z,50.50
2022-11-16T05:09:25.078Z,45.58
2022-11-16T05:11:58.225Z,45.67
2022-11-16T05:14:30.542Z,42.70
2022-11-16T05:17:03.895Z,40.92
2022-11-16T05:19:55.664Z,41.42
2022-11-16T05:22:29.873Z,35.25
2022-11-16T05:25:03.958Z,40.50
2022-11-16T05:27:36.110Z,36.10
2022-11-16T05:30:09.228Z,35.47
2022-11-16T05:32:41.652Z,36.37
2022-11-16T05:35:15.189Z,41.38
2022-11-16T05:37:48.136Z,42.72
2022-11-16T05:40:20.291Z,38.75
2022-11-16T05:42:58.476Z,32.13
2022-11-16T05:45:32.951Z,34.83
2022-11-16T05:48:06.275Z,34.17
2022-11-16T05:50:42.500Z,31.75
2022-11-16T05:53:21.914Z,29.25
2022-11-16T05:55:54.290Z,34.17
2022-11-16T05:58:28.469Z,40.13
2022-11-16T06:03:35.718Z,33.97
2022-11-16T06:06:08.716Z,31.27
2022-11-16T06:08:41.110Z,33.40
2022-11-16T06:11:16.845Z,45.22
2022-11-16T06:13:52.929Z,32.33
2022-11-16T06:16:25.035Z,27.27
2022-11-16T06:18:57.246Z,36.17
2022-11-16T06:21:29.509Z,32.35
2022-11-16T06:24:02.786Z,40.17
2022-11-16T06:26:35.998Z,28.15
2022-11-16T06:29:08.283Z,38.07
2022-11-16T06:31:40.897Z,35.30
2022-11-16T06:34:12.977Z,63.90
2022-11-16T06:36:45.041Z,40.95
2022-11-16T06:39:18.015Z,49.97
2022-11-16T06:41:50.927Z,42.08
2022-11-16T06:44:23.371Z,29.60
2022-11-16T06:47:01.935Z,29.30
2022-11-16T06:49:33.963Z,27.55
2022-11-16T06:52:10.413Z,34.47
2022-11-16T06:54:42.859Z,27.33
2022-11-16T06:57:14.875Z,33.53
2022-11-16T06:59:46.903Z,25.65
2022-11-16T07:02:21.439Z,29.27
2022-11-16T07:04:54.824Z,28.27
2022-11-16T07:07:40.564Z,31.48
2022-11-16T07:10:13.970Z,30.00
2022-11-16T07:12:47.218Z,31.67
2022-11-16T07:15:20.830Z,32.45
2022-11-16T07:17:53.762Z,33.67
2022-11-16T07:20:25.909Z,30.33
2022-11-16T07:23:01.202Z,41.17
2022-11-16T07:25:34.291Z,36.40
2022-11-16T07:28:07.425Z,42.00
2022-11-16T07:30:40.443Z,39.83
2022-11-16T07:33:17.266Z,34.47
2022-11-16T07:36:14.542Z,37.47
2022-11-16T07:38:46.980Z,29.77
2022-11-16T07:41:20.516Z,26.95
2022-11-16T07:44:12.032Z,25.77
2022-11-16T07:46:48.140Z,41.92
2022-11-16T07:49:22.043Z,41.25
2022-11-16T07:51:58.961Z,33.85
2022-11-16T07:54:40.892Z,29.58
2022-11-16T07:57:13.787Z,31.00
2022-11-16T07:59:47.482Z,35.63
2022-11-16T08:02:19.541Z,31.70
2022-11-16T08:04:51.675Z,31.88
2022-11-16T08:07:30.821Z,35.33
2022-11-16T08:10:03.419Z,30.80
2022-11-16T08:12:35.840Z,33.93
2022-11-16T08:15:08.678Z,28.45
2022-11-16T08:17:40.716Z,27.87
2022-11-16T08:20:16.808Z,34.80
2022-11-16T08:22:50.565Z,27.95
2022-11-16T08:25:23.658Z,28.38
2022-11-16T08:27:56.861Z,29.80
2022-11-16T08:30:29.009Z,30.50
2022-11-16T08:33:01.303Z,33.65
2022-11-16T08:35:34.275Z,32.55
2022-11-16T08:38:06.784Z,41.63
2022-11-16T08:40:39.616Z,33.45
2022-11-16T08:43:12.278Z,29.25
2022-11-16T08:45:48.957Z,35.30
2022-11-16T08:48:21.256Z,29.48
2022-11-16T08:51:16.368Z,30.88
2022-11-16T08:53:49.556Z,24.42
2022-11-16T08:56:23.582Z,30.48
2022-11-16T08:58:58.888Z,28.60
2022-11-16T09:01:33.064Z,27.33
2022-11-16T09:04:05.432Z,28.00
2022-11-16T09:06:37.459Z,33.65
2022-11-16T09:09:09.594Z,39.80
2022-11-16T09:11:41.610Z,33.15
2022-11-16T09:14:14.100Z,28.88
2022-11-16T09:16:46.105Z,27.52
2022-11-16T09:19:18.186Z,30.00
2022-11-16T09:21:50.536Z,26.55
2022-11-16T09:24:22.781Z,22.67
2022-11-16T09:26:56.872Z,33.70
2022-11-16T09:29:29.083Z,19.90
2022-11-16T09:32:02.267Z,19.45
2022-11-16T09:34:35.258Z,19.17
2022-11-16T09:37:08.167Z,18.17
2022-11-16T09:39:40.280Z,18.07
2022-11-16T09:42:30.850Z,22.52
2022-11-16T09:45:15.397Z,17.08
2022-11-16T09:47:57.632Z,20.42
2022-11-16T09:50:53.725Z,15.05
2022-11-16T09:53:38.116Z,15.57
2022-11-16T09:56:22.297Z,16.75
2022-11-16T09:58:55.169Z,16.08
2022-11-16T10:01:29.631Z,16.38
2022-11-16T10:04:15.099Z,15.32
2022-11-16T10:06:47.149Z,16.90
2022-11-16T10:09:20.071Z,16.67
2022-11-16T10:12:14.647Z,15.32
2022-11-16T10:15:07.319Z,17.50
2022-11-16T10:17:51.644Z,20.52
2022-11-16T10:20:30.677Z,13.85
2022-11-16T10:23:18.337Z,15.07
2022-11-16T10:25:55.633Z,16.88
2022-11-16T10:28:43.001Z,13.50
2022-11-16T10:31:15.131Z,16.35
2022-11-16T10:33:50.468Z,19.52
2022-11-16T10:36:27.575Z,29.65
2022-11-16T10:39:02.597Z,14.82
2022-11-16T10:41:45.072Z,13.80
2022-11-16T10:44:41.534Z,15.50
2022-11-16T10:47:36.935Z,14.57
2022-11-16T10:50:35.598Z,17.60
2022-11-16T10:53:14.614Z,15.43
2022-11-16T10:56:01.223Z,19.55
2022-11-16T10:58:54.104Z,19.13
2022-11-16T11:01:33.780Z,14.30
2022-11-16T11:04:23.742Z,14.07
2022-11-16T11:07:01.200Z,19.75
2022-11-16T11:09:35.067Z,22.70
2022-11-16T11:12:38.363Z,13.95
2022-11-16T11:15:28.624Z,18.55
2022-11-16T11:18:21.997Z,15.50
2022-11-16T11:21:19.139Z,12.80
2022-11-16T11:23:53.815Z,15.15
2022-11-16T11:26:41.316Z,15.00
2022-11-16T11:29:38.057Z,13.40
2022-11-16T11:32:23.831Z,13.85
2022-11-16T11:34:57.693Z,11.05
2022-11-16T11:37:34.171Z,13.90
2022-11-16T11:40:23.005Z,13.90
2022-11-16T11:43:03.324Z,13.50
2022-11-16T11:45:54.365Z,10.95
2022-11-16T11:48:49.645Z,14.95
2022-11-16T11:51:31.681Z,13.23
2022-11-16T11:54:07.759Z,13.27
2022-11-16T11:56:40.117Z,11.82
2022-11-16T11:59:18.977Z,13.70
2022-11-16T12:01:54.066Z,13.10
2022-11-16T12:04:47.197Z,23.75
2022-11-16T12:07:56.876Z,31.42
2022-11-16T12:10:34.415Z,19.50
2022-11-16T12:13:06.771Z,17.70
2022-11-16T12:15:58.110Z,13.32
2022-11-16T12:19:14.653Z,11.00
2022-11-16T12:21:54.693Z,14.40
2022-11-16T12:24:56.815Z,14.07
2022-11-16T12:28:09.250Z,26.27
2022-11-16T12:31:22.759Z,23.65
2022-11-16T12:34:10.178Z,11.77
2022-11-16T12:36:58.636Z,11.68
2022-11-16T12:40:14.892Z,14.48
2022-11-16T12:43:05.862Z,8.52
2022-11-16T12:45:59.132Z,15.93
2022-11-16T12:48:56.052Z,11.43
2022-11-16T12:51:31.793Z,10.02
2022-11-16T12:54:25.413Z,14.80
2022-11-16T12:57:04.182Z,13.52
2022-11-16T13:00:04.104Z,11.80
2022-11-16T13:02:51.308Z,12.57
2022-11-16T13:06:10.831Z,10.10
2022-11-16T13:09:21.554Z,10.18
2022-11-16T13:12:17.131Z,12.05
2022-11-16T13:14:53.416Z,9.88
2022-11-16T13:17:32.005Z,14.20
2022-11-16T13:20:22.281Z,6.68
2022-11-16T13:23:18.483Z,9.35
2022-11-16T13:26:10.378Z,12.52
2022-11-16T13:29:14.672Z,9.02
2022-11-16T13:32:00.419Z,8.98
2022-11-16T13:34:35.702Z,9.95
2022-11-16T13:37:38.692Z,9.68
2022-11-16T13:40:23.097Z,8.13
2022-11-16T13:42:58.178Z,8.75
2022-11-16T13:45:39.058Z,6.97
2022-11-16T13:48:21.407Z,6.82
2022-11-16T13:50:58.846Z,7.90
2022-11-16T13:56:48.966Z,7.38
2022-11-16T13:59:27.711Z,4.68
2022-11-16T14:02:23.883Z,7.88
2022-11-16T14:04:58.506Z,10.43
2022-11-16T14:07:42.824Z,9.52
2022-11-16T14:10:53.076Z,6.10
2022-11-16T14:13:40.544Z,11.40
2022-11-16T14:16:19.579Z,5.93
2022-11-16T14:18:51.639Z,5.13
2022-11-16T14:21:38.947Z,4.93
2022-11-16T14:24:46.384Z,5.32
2022-11-16T14:27:30.801Z,9.25
2022-11-16T14:30:15.189Z,7.93
2022-11-16T14:32:49.889Z,6.32
2022-11-16T14:35:42.238Z,5.72
2022-11-16T14:38:28.662Z,7.43
2022-11-16T14:41:03.467Z,5.13
2022-11-16T14:43:49.171Z,5.45
2022-11-16T14:46:26.200Z,5.65
2022-11-16T14:49:01.218Z,4.30
2022-11-16T14:51:35.972Z,4.55
2022-11-16T14:54:24.249Z,6.18
2022-11-16T14:57:02.292Z,5.43
2022-11-16T14:59:34.635Z,12.02
2022-11-16T15:02:19.624Z,9.75
2022-11-16T15:04:53.254Z,12.05
2022-11-16T15:10:00.327Z,11.43
2022-11-16T15:12:41.740Z,18.77
2022-11-16T15:15:17.013Z,14.15
2022-11-16T15:18:03.854Z,16.80
2022-11-16T15:20:39.307Z,17.63
2022-11-16T15:23:15.531Z,15.18
2022-11-16T15:25:56.293Z,21.35
2022-11-16T15:28:31.882Z,20.83
2022-11-16T15:31:05.958Z,18.20
2022-11-16T15:33:42.057Z,23.88
2022-11-16T15:36:25.957Z,22.50
2022-11-16T15:41:31.115Z,20.65
2022-11-16T15:44:15.211Z,22.73
2022-11-16T15:46:50.932Z,19.48
2022-11-16T15:49:34.899Z,14.18
2022-11-16T15:54:58.102Z,18.63
2022-11-16T15:57:30.170Z,18.98
2022-11-16T16:00:17.940Z,19.75
2022-11-16T16:02:51.572Z,17.83
2022-11-16T16:08:23.093Z,17.65
2022-11-16T16:11:26.888Z,22.10
2022-11-16T16:14:03.918Z,24.67
2022-11-16T16:16:40.119Z,25.65
2022-11-16T16:19:34.604Z,18.95
2022-11-16T16:22:14.594Z,20.20
2022-11-16T16:24:50.270Z,19.92
2022-11-16T16:27:26.948Z,23.38
2022-11-16T16:30:04.463Z,20.80
2022-11-16T16:32:46.275Z,21.92
2022-11-16T16:35:22.018Z,30.02
2022-11-16T16:37:59.710Z,23.77
2022-11-16T16:40:31.788Z,26.95
2022-11-16T16:43:03.819Z,27.70
2022-11-16T16:45:41.946Z,23.70
2022-11-16T16:48:13.940Z,20.40
2022-11-16T16:50:46.241Z,27.17
2022-11-16T16:53:18.469Z,19.58
2022-11-16T16:55:50.846Z,23.52
2022-11-16T16:58:22.863Z,24.75
2022-11-16T17:01:00.941Z,25.38
2022-11-16T17:03:33.849Z,19.70
2022-11-16T17:06:06.395Z,20.47
2022-11-16T17:08:39.444Z,26.98
2022-11-16T17:11:14.904Z,28.17
2022-11-16T17:13:47.216Z,24.58
2022-11-16T17:16:19.214Z,27.40
2022-11-16T17:18:56.026Z,26.67
2022-11-16T17:21:28.134Z,23.60
2022-11-16T17:24:00.686Z,20.38
2022-11-16T17:26:32.934Z,26.97
2022-11-16T17:29:05.106Z,27.75
2022-11-16T17:31:37.116Z,30.15
2022-11-16T17:34:13.499Z,28.80
2022-11-16T17:36:46.449Z,40.75
2022-11-16T17:39:19.356Z,34.90
2022-11-16T17:41:51.785Z,27.87
2022-11-16T17:44:23.881Z,30.42
2022-11-16T17:46:55.908Z,40.20
2022-11-16T17:49:27.917Z,30.85
2022-11-16T17:51:59.971Z,34.30
2022-11-16T17:54:32.660Z,71.03
2022-11-16T17:57:04.654Z,53.38
2022-11-16T17:59:36.864Z,51.33
2022-11-16T18:02:11.862Z,52.30
2022-11-16T18:04:49.645Z,60.75
2022-11-16T18:07:23.272Z,50.25
2022-11-16T18:09:55.316Z,54.25
2022-11-16T18:12:27.606Z,53.63
2022-11-16T18:15:26.577Z,45.97
2022-11-16T18:17:51.791Z,49.35
2022-11-16T18:20:24.411Z,46.58
2022-11-16T18:22:57.473Z,46.35
2022-11-16T18:25:29.518Z,63.53
2022-11-16T18:28:01.567Z,46.90
2022-11-16T18:30:34.037Z,52.63
2022-11-16T18:33:06.030Z,50.00
2022-11-16T18:35:38.459Z,50.92
2022-11-16T18:38:13.398Z,45.58
2022-11-16T18:40:45.360Z,45.88
2022-11-16T18:43:17.373Z,40.97
2022-11-16T18:45:49.385Z,36.67
2022-11-16T18:48:21.418Z,37.25
2022-11-16T18:50:57.204Z,38.67
2022-11-16T18:53:30.632Z,32.78
2022-11-16T18:56:03.327Z,29.50
2022-11-16T18:58:52.680Z,32.10
2022-11-16T19:01:26.467Z,33.45
2022-11-16T19:03:58.774Z,45.47
2022-11-16T19:06:32.314Z,41.25
2022-11-16T19:11:38.497Z,36.13
2022-11-16T19:14:10.507Z,40.92
2022-11-16T19:16:52.581Z,36.20
2022-11-16T19:19:29.274Z,38.47
2022-11-16T19:22:01.339Z,41.00
2022-11-16T19:24:33.508Z,37.28
2022-11-16T19:27:05.584Z,32.03
2022-11-16T19:29:37.810Z,33.90
2022-11-16T19:32:09.891Z,28.60
2022-11-16T19:34:42.866Z,26.38
2022-11-16T19:37:15.340Z,25.25
2022-11-16T19:39:47.510Z,28.05
2022-11-16T19:42:19.549Z,26.00
2022-11-16T19:44:51.584Z,28.17
2022-11-16T19:47:26.271Z,27.90
2022-11-16T19:49:58.509Z,30.55
2022-11-16T19:52:30.663Z,29.60
2022-11-16T19:55:02.672Z,28.13
2022-11-16T19:57:34.655Z,30.05
2022-11-16T20:00:07.664Z,25.80
2022-11-16T20:02:39.861Z,25.25
2022-11-16T20:05:12.374Z,23.83
2022-11-16T20:07:44.775Z,30.23
2022-11-16T20:10:17.312Z,28.23
2022-11-16T20:12:49.808Z,30.00
2022-11-16T20:15:23.929Z,24.02
2022-11-16T20:17:56.024Z,23.42
2022-11-16T20:20:28.389Z,21.02
2022-11-16T20:23:00.440Z,22.88
2022-11-16T20:25:32.918Z,22.75
2022-11-16T20:28:05.545Z,20.08
2022-11-16T20:30:38.163Z,19.73
2022-11-16T20:33:10.369Z,19.85
2022-11-16T20:35:42.452Z,19.42
2022-11-16T20:38:14.574Z,21.77
2022-11-16T20:40:46.640Z,18.80
2022-11-16T20:43:18.747Z,18.30
2022-11-16T20:45:54.057Z,19.48
2022-11-16T20:48:26.048Z,16.80
2022-11-16T20:50:58.489Z,17.50
2022-11-16T20:53:31.106Z,16.25
2022-11-16T20:56:04.389Z,18.60
2022-11-16T20:58:36.738Z,17.77
2022-11-16T21:01:20.359Z,18.67
2022-11-16T21:03:52.530Z,17.95
2022-11-16T21:06:25.529Z,18.25
2022-11-16T21:08:58.404Z,15.95
2022-11-16T21:11:51.531Z,15.23
2022-11-16T21:14:24.555Z,22.58
2022-11-16T21:16:57.163Z,18.30
2022-11-16T21:19:29.228Z,17.48
2022-11-16T21:22:01.235Z,19.95
2022-11-16T21:24:34.842Z,15.68
2022-11-16T21:29:38.823Z,18.05
2022-11-16T21:32:11.425Z,18.17
2022-11-16T21:34:43.665Z,20.33
2022-11-16T21:37:15.876Z,28.42
2022-11-16T21:39:48.388Z,30.30
2022-11-16T21:42:20.363Z,25.10
2022-11-16T21:44:52.334Z,19.33
2022-11-16T21:47:24.372Z,17.40
2022-11-16T21:50:24.891Z,24.48
2022-11-16T21:52:48.507Z,19.13
2022-11-16T21:55:22.827Z,20.40
2022-11-16T21:57:55.596Z,19.17
2022-11-16T22:00:28.477Z,15.47
2022-11-16T22:03:00.905Z,14.50
2022-11-16T22:05:51.552Z,15.68
2022-11-16T22:08:23.633Z,19.52
2022-11-16T22:10:58.006Z,16.80
2022-11-16T22:13:30.014Z,20.17
2022-11-16T22:16:13.771Z,17.80
2022-11-16T22:18:46.132Z,19.70
2022-11-16T22:21:21.211Z,19.45
2022-11-16T22:23:53.183Z,19.55
2022-11-16T22:26:25.182Z,18.05
2022-11-16T22:28:58.512Z,18.70
2022-11-16T22:31:30.727Z,17.55
2022-11-16T22:34:02.811Z,16.83
2022-11-16T22:36:35.046Z,16.60
2022-11-16T22:39:07.436Z,17.33
2022-11-16T22:41:39.768Z,17.42
2022-11-16T22:44:11.772Z,16.15
2022-11-16T22:46:43.747Z,23.80
2022-11-16T22:49:15.778Z,15.93
2022-11-16T22:51:47.974Z,14.85
2022-11-16T22:54:23.407Z,15.07
2022-11-16T22:56:59.772Z,17.67
2022-11-16T22:59:32.058Z,17.55
2022-11-16T23:02:05.861Z,15.63
2022-11-16T23:04:37.882Z,14.88
2022-11-16T23:07:09.960Z,18.20
2022-11-16T23:09:44.428Z,17.85
2022-11-16T23:12:35.253Z,15.68
2022-11-16T23:15:30.777Z,18.48
2022-11-16T23:18:02.913Z,15.20
2022-11-16T23:20:55.984Z,21.65
2022-11-16T23:23:46.645Z,16.00
2022-11-16T23:26:42.388Z,19.40
2022-11-16T23:29:14.538Z,18.45
2022-11-16T23:31:46.751Z,14.80
2022-11-16T23:34:20.333Z,17.92
2022-11-16T23:36:52.343Z,16.60
2022-11-16T23:39:24.912Z,14.77
2022-11-16T23:42:15.984Z,15.47
2022-11-16T23:44:48.231Z,14.27
2022-11-16T23:47:20.269Z,13.50
2022-11-16T23:49:52.392Z,12.75
2022-11-16T23:52:24.373Z,11.95
2022-11-16T23:54:56.422Z,15.55
2022-11-16T23:57:32.444Z,18.83
